createdAt,value
2022-08-11T00:00:07.994Z,66.35
2022-08-11T00:00:39.563Z,66.15
2022-08-11T00:01:09.303Z,65.75
2022-08-11T00:01:40.090Z,65.24
2022-08-11T00:02:15.105Z,65.14
2022-08-11T00:02:42.811Z,65.95
2022-08-11T00:03:12.657Z,65.95
2022-08-11T00:03:44.292Z,66.65
2022-08-11T00:04:14.050Z,66.96
2022-08-11T00:04:44.838Z,66.05
2022-08-11T00:05:15.727Z,65.75
2022-08-11T00:05:47.355Z,66.96
2022-08-11T00:06:18.130Z,66.96
2022-08-11T00:06:47.869Z,66.99
2022-08-11T00:07:19.484Z,66.69
2022-08-11T00:07:49.226Z,65.98
2022-08-11T00:08:20.855Z,65.98
2022-08-11T00:08:50.517Z,66.48
2022-08-11T00:09:22.151Z,66.08
2022-08-11T00:09:51.908Z,66.78
2022-08-11T00:10:23.501Z,66.89
2022-08-11T00:10:53.234Z,66.18
2022-08-11T00:11:24.005Z,67.29
2022-08-11T00:11:58.721Z,68.91
2022-08-11T00:12:25.635Z,67.69
2022-08-11T00:12:57.241Z,66.78
2022-08-11T00:13:27.811Z,66.69
2022-08-11T00:13:58.369Z,68.23
2022-08-11T00:14:37.290Z,67.12
2022-08-11T00:14:59.708Z,67.63
2022-08-11T00:15:29.508Z,68.03
2022-08-11T00:16:00.295Z,67.93
2022-08-11T00:16:31.902Z,67.63
2022-08-11T00:17:02.431Z,68.13
2022-08-11T00:17:32.169Z,68.33
2022-08-11T00:18:03.759Z,67.63
2022-08-11T00:18:39.448Z,67.43
2022-08-11T00:19:05.079Z,67.83
2022-08-11T00:20:13.846Z,68.13
2022-08-11T00:20:14.493Z,68.74
2022-08-11T00:20:37.196Z,69.95
2022-08-11T00:21:06.931Z,68.23
2022-08-11T00:22:04.549Z,68.54
2022-08-11T00:22:09.547Z,70.46
2022-08-11T00:22:40.507Z,68.84
2022-08-11T00:23:11.154Z,68.63
2022-08-11T00:23:41.705Z,68.63
2022-08-11T00:24:11.466Z,68.94
2022-08-11T00:24:53.662Z,68.33
2022-08-11T00:25:14.066Z,67.93
2022-08-11T00:25:44.619Z,68.26
2022-08-11T00:26:15.179Z,69.38
2022-08-11T00:26:44.918Z,69.48
2022-08-11T00:27:15.707Z,68.16
2022-08-11T00:27:46.509Z,69.68
2022-08-11T00:28:18.075Z,69.18
2022-08-11T00:28:47.811Z,70.79
2022-08-11T00:29:18.598Z,70.49
2022-08-11T00:29:51.863Z,71.70
2022-08-11T00:30:21.002Z,70.49
2022-08-11T00:30:50.743Z,69.68
2022-08-11T00:31:22.323Z,69.58
2022-08-11T00:31:52.866Z,69.07
2022-08-11T00:32:23.417Z,70.89
2022-08-11T00:32:53.949Z,71.00
2022-08-11T00:33:44.306Z,69.89
2022-08-11T00:33:55.513Z,70.49
2022-08-11T00:34:25.253Z,70.69
2022-08-11T00:35:51.906Z,71.00
2022-08-11T00:35:55.547Z,70.89
2022-08-11T00:35:58.398Z,70.69
2022-08-11T00:36:28.143Z,69.98
2022-08-11T00:36:58.927Z,70.12
2022-08-11T00:37:30.498Z,70.93
2022-08-11T00:38:01.023Z,70.93
2022-08-11T00:38:31.605Z,69.31
2022-08-11T00:39:01.337Z,71.03
2022-08-11T00:39:32.210Z,72.44
2022-08-11T00:40:03.916Z,71.84
2022-08-11T00:40:33.723Z,70.62
2022-08-11T00:41:05.300Z,71.73
2022-08-11T00:41:35.864Z,72.14
2022-08-11T00:42:06.414Z,70.12
2022-08-11T00:42:37.155Z,71.03
2022-08-11T00:43:07.858Z,70.76
2022-08-11T00:43:37.698Z,70.36
2022-08-11T00:44:08.021Z,71.16
2022-08-11T00:44:39.634Z,71.97
2022-08-11T00:45:09.384Z,71.67
2022-08-11T00:45:40.958Z,73.09
2022-08-11T00:46:10.700Z,73.49
2022-08-11T00:46:41.493Z,72.08
2022-08-11T00:47:12.283Z,70.65
2022-08-11T00:47:43.066Z,70.15
2022-08-11T00:48:14.634Z,70.56
2022-08-11T00:48:45.310Z,71.97
2022-08-11T00:49:15.860Z,72.78
2022-08-11T00:49:45.599Z,71.88
2022-08-11T00:50:17.234Z,71.06
2022-08-11T00:50:47.795Z,73.19
2022-08-11T00:51:17.545Z,71.77
2022-08-11T00:52:04.441Z,71.77
2022-08-11T00:52:20.141Z,70.76
2022-08-11T00:52:49.877Z,71.67
2022-08-11T00:53:21.468Z,71.57
2022-08-11T00:53:52.014Z,71.26
2022-08-11T00:54:21.557Z,71.88
2022-08-11T00:54:53.124Z,71.97
2022-08-11T00:55:22.862Z,71.91
2022-08-11T00:55:55.895Z,72.31
2022-08-11T00:56:25.075Z,72.61
2022-08-11T00:56:55.821Z,71.91
2022-08-11T00:57:37.355Z,72.81
2022-08-11T00:57:57.389Z,71.00
2022-08-11T00:58:27.137Z,71.60
2022-08-11T00:58:58.796Z,71.50
2022-08-11T00:59:35.001Z,70.79
2022-08-11T01:00:00.144Z,70.69
2022-08-11T01:00:30.732Z,71.80
2022-08-11T01:01:00.548Z,71.09
2022-08-11T01:01:32.266Z,72.52
2022-08-11T01:02:02.834Z,71.80
2022-08-11T01:02:33.386Z,71.40
2022-08-11T01:03:03.132Z,72.11
2022-08-11T01:03:34.711Z,71.20
2022-08-11T01:04:05.230Z,71.00
2022-08-11T01:04:34.961Z,70.79
2022-08-11T01:05:05.769Z,71.70
2022-08-11T01:05:37.376Z,71.50
2022-08-11T01:06:07.971Z,71.30
2022-08-11T01:06:38.911Z,72.01
2022-08-11T01:07:08.560Z,72.72
2022-08-11T01:08:01.685Z,71.80
2022-08-11T01:08:10.965Z,71.40
2022-08-11T01:08:40.720Z,72.21
2022-08-11T01:09:17.989Z,72.01
2022-08-11T01:09:43.108Z,71.80
2022-08-11T01:10:13.636Z,71.13
2022-08-11T01:10:43.174Z,72.24
2022-08-11T01:11:14.741Z,72.24
2022-08-11T01:11:56.000Z,71.23
2022-08-11T01:12:16.072Z,72.55
2022-08-11T01:12:45.822Z,71.13
2022-08-11T01:13:16.605Z,71.84
2022-08-11T01:13:47.386Z,71.64
2022-08-11T01:14:18.961Z,71.13
2022-08-11T01:14:49.741Z,71.53
2022-08-11T01:15:19.478Z,72.04
2022-08-11T01:15:57.275Z,71.94
2022-08-11T01:16:22.105Z,72.45
2022-08-11T01:16:52.669Z,71.64
2022-08-11T01:17:22.428Z,71.13
2022-08-11T01:17:53.202Z,72.04
2022-08-11T01:18:28.464Z,72.55
2022-08-11T01:18:54.379Z,73.76
2022-08-11T01:19:25.948Z,72.55
2022-08-11T01:20:44.889Z,73.56
2022-08-11T01:20:46.241Z,73.05
2022-08-11T01:20:58.292Z,71.13
2022-08-11T01:21:28.022Z,71.13
2022-08-11T01:21:59.600Z,72.85
2022-08-11T01:22:29.393Z,73.16
2022-08-11T01:23:00.995Z,73.05
2022-08-11T01:23:31.559Z,72.75
2022-08-11T01:24:01.297Z,71.94
2022-08-11T01:24:32.928Z,72.24
2022-08-11T01:25:03.465Z,73.25
2022-08-11T01:25:34.031Z,72.65
2022-08-11T01:26:04.783Z,73.19
2022-08-11T01:26:35.566Z,71.57
2022-08-11T01:27:19.271Z,73.70
2022-08-11T01:27:36.915Z,73.70
2022-08-11T01:28:07.426Z,72.28
2022-08-11T01:28:37.163Z,73.19
2022-08-11T01:29:08.784Z,73.29
2022-08-11T01:29:39.356Z,73.09
2022-08-11T01:30:09.260Z,72.68
2022-08-11T01:30:40.839Z,72.38
2022-08-11T01:31:11.503Z,73.39
2022-08-11T01:31:42.070Z,72.68
2022-08-11T01:32:11.605Z,72.89
2022-08-11T01:32:42.380Z,72.78
2022-08-11T01:33:13.217Z,72.99
2022-08-11T01:33:43.945Z,74.91
2022-08-11T01:34:15.553Z,72.78
2022-08-11T01:34:46.089Z,72.78
2022-08-11T01:35:16.646Z,72.48
2022-08-11T01:35:47.451Z,73.80
2022-08-11T01:36:17.186Z,72.89
2022-08-11T01:36:56.512Z,73.60
2022-08-11T01:37:19.577Z,73.09
2022-08-11T01:37:49.315Z,73.19
2022-08-11T01:38:20.100Z,73.80
2022-08-11T01:38:51.696Z,73.39
2022-08-11T01:39:22.255Z,73.60
2022-08-11T01:39:52.833Z,73.90
2022-08-11T01:40:22.613Z,72.89
2022-08-11T01:40:54.228Z,73.39
2022-08-11T01:41:24.773Z,73.19
2022-08-11T01:41:54.655Z,72.89
2022-08-11T01:42:26.258Z,72.17
2022-08-11T01:42:56.813Z,71.88
2022-08-11T01:43:27.349Z,73.29
2022-08-11T01:43:57.109Z,73.39
2022-08-11T01:44:28.697Z,74.30
2022-08-11T01:44:59.242Z,73.49
2022-08-11T01:45:29.818Z,73.70
2022-08-11T01:45:59.554Z,74.41
2022-08-11T01:46:30.146Z,73.02
2022-08-11T01:47:01.710Z,72.72
2022-08-11T01:47:32.310Z,72.01
2022-08-11T01:48:02.046Z,72.52
2022-08-11T01:48:33.633Z,73.63
2022-08-11T01:50:07.106Z,73.93
2022-08-11T01:50:07.871Z,74.04
2022-08-11T01:50:09.534Z,73.80
2022-08-11T01:50:36.488Z,74.54
2022-08-11T01:51:07.013Z,74.00
2022-08-11T01:51:39.935Z,73.12
2022-08-11T01:52:08.390Z,73.12
2022-08-11T01:52:38.934Z,73.93
2022-08-11T01:53:09.501Z,73.73
2022-08-11T01:53:40.077Z,74.74
2022-08-11T01:54:09.970Z,74.74
2022-08-11T01:54:40.754Z,75.15
2022-08-11T01:55:12.336Z,74.95
2022-08-11T01:55:42.075Z,75.05
2022-08-11T01:56:13.673Z,73.63
2022-08-11T01:56:44.229Z,73.73
2022-08-11T01:57:14.776Z,74.54
2022-08-11T01:57:44.516Z,74.65
2022-08-11T01:58:15.303Z,74.95
2022-08-11T01:58:46.099Z,73.83
2022-08-11T01:59:16.882Z,73.22
2022-08-11T01:59:47.700Z,73.53
2022-08-11T02:00:19.306Z,74.24
2022-08-11T02:00:50.079Z,74.14
2022-08-11T02:01:19.950Z,73.53
2022-08-11T02:01:50.662Z,74.65
2022-08-11T02:02:22.241Z,74.95
2022-08-11T02:02:51.983Z,73.43
2022-08-11T02:03:23.607Z,74.04
2022-08-11T02:03:54.172Z,74.34
2022-08-11T02:04:23.909Z,74.54
2022-08-11T02:04:54.717Z,74.24
2022-08-11T02:05:26.534Z,74.54
2022-08-11T02:05:56.276Z,74.24
2022-08-11T02:06:27.061Z,74.04
2022-08-11T02:06:57.862Z,74.44
2022-08-11T02:07:29.436Z,75.35
2022-08-11T02:08:00.274Z,74.38
2022-08-11T02:08:33.021Z,73.46
2022-08-11T02:09:00.788Z,74.48
2022-08-11T02:09:31.468Z,74.48
2022-08-11T02:10:02.091Z,74.78
2022-08-11T02:10:36.423Z,75.19
2022-08-11T02:11:04.914Z,74.68
2022-08-11T02:11:35.457Z,74.38
2022-08-11T02:12:06.606Z,74.17
2022-08-11T02:12:36.339Z,74.48
2022-08-11T02:13:08.050Z,74.38
2022-08-11T02:13:38.601Z,73.77
2022-08-11T02:14:09.790Z,75.49
2022-08-11T02:14:40.369Z,74.98
2022-08-11T02:15:11.147Z,74.78
2022-08-11T02:15:41.668Z,74.88
2022-08-11T02:16:11.408Z,75.19
2022-08-11T02:16:42.991Z,74.17
2022-08-11T02:17:13.748Z,74.78
2022-08-11T02:17:44.280Z,75.70
2022-08-11T02:18:14.830Z,74.98
2022-08-11T02:18:44.560Z,74.82
2022-08-11T02:19:15.385Z,74.68
2022-08-11T02:19:47.006Z,74.51
2022-08-11T02:20:38.774Z,74.62
2022-08-11T02:20:48.412Z,74.82
2022-08-11T02:21:18.940Z,74.31
2022-08-11T02:21:49.511Z,75.32
2022-08-11T02:22:19.244Z,75.83
2022-08-11T02:22:50.854Z,76.44
2022-08-11T02:23:40.981Z,76.64
2022-08-11T02:24:05.387Z,77.05
2022-08-11T02:24:22.987Z,76.03
2022-08-11T02:24:52.728Z,75.73
2022-08-11T02:25:23.510Z,75.22
2022-08-11T02:25:55.100Z,74.62
2022-08-11T02:26:25.257Z,74.82
2022-08-11T02:26:55.545Z,75.83
2022-08-11T02:27:27.114Z,75.43
2022-08-11T02:27:57.660Z,75.73
2022-08-11T02:28:28.229Z,76.85
2022-08-11T02:28:59.010Z,77.76
2022-08-11T02:29:29.589Z,76.14
2022-08-11T02:30:00.361Z,75.32
2022-08-11T02:30:30.932Z,76.85
2022-08-11T02:31:01.455Z,75.63
2022-08-11T02:32:24.399Z,76.03
2022-08-11T02:32:25.046Z,75.52
2022-08-11T02:32:33.588Z,75.63
2022-08-11T02:33:03.464Z,75.83
2022-08-11T02:33:34.400Z,76.78
2022-08-11T02:34:04.825Z,75.16
2022-08-11T02:34:35.610Z,74.65
2022-08-11T02:35:07.429Z,75.36
2022-08-11T02:35:37.117Z,77.70
2022-08-11T02:36:08.738Z,76.58
2022-08-11T02:36:39.264Z,75.87
2022-08-11T02:37:09.816Z,76.68
2022-08-11T02:37:40.374Z,76.88
2022-08-11T02:38:10.118Z,76.07
2022-08-11T02:38:40.926Z,74.95
2022-08-11T02:39:11.761Z,75.56
2022-08-11T02:39:43.418Z,76.07
2022-08-11T02:40:13.968Z,76.98
2022-08-11T02:40:44.505Z,76.48
2022-08-11T02:41:15.035Z,76.17
2022-08-11T02:41:45.612Z,76.48
2022-08-11T02:42:32.706Z,77.29
2022-08-11T02:42:47.800Z,76.17
2022-08-11T02:43:16.759Z,76.17
2022-08-11T02:43:50.870Z,77.49
2022-08-11T02:44:18.300Z,76.37
2022-08-11T02:44:49.044Z,75.97
2022-08-11T02:45:20.654Z,76.17
2022-08-11T02:45:51.208Z,75.87
2022-08-11T02:46:21.805Z,76.17
2022-08-11T02:46:52.527Z,76.07
2022-08-11T02:47:22.270Z,75.36
2022-08-11T02:47:53.321Z,76.37
2022-08-11T02:48:24.942Z,76.98
2022-08-11T02:48:55.470Z,76.48
2022-08-11T02:49:26.000Z,76.07
2022-08-11T02:50:06.348Z,76.37
2022-08-11T02:50:27.560Z,76.48
2022-08-11T02:50:57.321Z,75.87
2022-08-11T02:51:28.063Z,77.09
2022-08-11T02:51:59.883Z,76.98
2022-08-11T02:52:29.635Z,76.98
2022-08-11T02:53:00.517Z,77.09
2022-08-11T02:53:32.336Z,76.78
2022-08-11T02:54:02.862Z,75.87
2022-08-11T02:54:33.409Z,75.46
2022-08-11T02:55:04.071Z,75.46
2022-08-11T02:55:56.238Z,75.16
2022-08-11T02:56:05.632Z,76.28
2022-08-11T02:56:36.164Z,76.88
2022-08-11T02:57:11.425Z,75.97
2022-08-11T02:57:37.790Z,76.21
2022-08-11T02:58:07.532Z,76.41
2022-08-11T02:58:39.349Z,76.21
2022-08-11T02:59:09.910Z,77.63
2022-08-11T02:59:40.446Z,77.43
2022-08-11T03:00:10.990Z,76.72
2022-08-11T03:00:41.518Z,77.22
2022-08-11T03:01:12.209Z,76.41
2022-08-11T03:01:42.824Z,76.61
2022-08-11T03:02:12.750Z,77.02
2022-08-11T03:02:44.785Z,76.92
2022-08-11T03:03:16.756Z,76.41
2022-08-11T03:03:53.131Z,76.92
2022-08-11T03:04:38.006Z,78.34
2022-08-11T03:04:47.203Z,79.25
2022-08-11T03:05:16.948Z,77.12
2022-08-11T03:05:48.559Z,77.43
2022-08-11T03:06:19.249Z,79.16
2022-08-11T03:06:49.003Z,78.04
2022-08-11T03:07:28.481Z,78.55
2022-08-11T03:07:51.394Z,77.63
2022-08-11T03:08:21.920Z,76.21
2022-08-11T03:08:52.562Z,77.02
2022-08-11T03:09:23.236Z,77.22
2022-08-11T03:09:53.779Z,77.22
2022-08-11T03:10:24.549Z,78.14
2022-08-11T03:10:54.580Z,78.04
2022-08-11T03:11:25.390Z,77.33
2022-08-11T03:11:56.988Z,77.33
2022-08-11T03:12:27.543Z,77.33
2022-08-11T03:12:58.903Z,79.05
2022-08-11T03:14:04.421Z,78.34
2022-08-11T03:14:06.229Z,77.83
2022-08-11T03:14:35.971Z,79.05
2022-08-11T03:15:06.786Z,77.53
2022-08-11T03:15:37.577Z,77.22
2022-08-11T03:16:09.188Z,77.83
2022-08-11T03:16:39.714Z,77.94
2022-08-11T03:17:10.260Z,77.83
2022-08-11T03:17:40.791Z,77.87
2022-08-11T03:18:11.347Z,77.83
2022-08-11T03:18:44.091Z,78.34
2022-08-11T03:19:12.694Z,78.34
2022-08-11T03:19:42.435Z,78.08
2022-08-11T03:20:14.047Z,77.67
2022-08-11T03:20:43.859Z,77.87
2022-08-11T03:21:15.438Z,79.46
2022-08-11T03:22:02.835Z,78.38
2022-08-11T03:22:16.757Z,78.28
2022-08-11T03:22:46.500Z,79.09
2022-08-11T03:23:19.456Z,77.77
2022-08-11T03:23:48.880Z,77.87
2022-08-11T03:24:19.457Z,78.28
2022-08-11T03:24:50.001Z,77.56
2022-08-11T03:25:19.733Z,77.67
2022-08-11T03:25:50.522Z,78.17
2022-08-11T03:26:21.612Z,78.38
2022-08-11T03:26:51.911Z,78.17
2022-08-11T03:27:23.512Z,78.78
2022-08-11T03:27:53.243Z,78.68
2022-08-11T03:28:24.038Z,78.38
2022-08-11T03:28:55.650Z,78.08
2022-08-11T03:29:26.181Z,78.68
2022-08-11T03:29:55.941Z,78.68
2022-08-11T03:30:27.551Z,78.08
2022-08-11T03:30:58.063Z,78.58
2022-08-11T03:31:29.153Z,79.09
2022-08-11T03:31:58.890Z,78.78
2022-08-11T03:32:30.472Z,79.70
2022-08-11T03:33:01.007Z,79.29
2022-08-11T03:33:31.779Z,79.19
2022-08-11T03:34:06.009Z,79.09
2022-08-11T03:34:33.026Z,78.78
2022-08-11T03:35:02.726Z,78.89
2022-08-11T03:35:34.262Z,79.19
2022-08-11T03:36:05.344Z,79.90
2022-08-11T03:36:54.562Z,78.99
2022-08-11T03:37:16.697Z,78.89
2022-08-11T03:37:37.465Z,78.08
2022-08-11T03:38:07.948Z,78.48
2022-08-11T03:38:38.949Z,78.68
2022-08-11T03:39:08.719Z,79.09
2022-08-11T03:39:39.572Z,78.99
2022-08-11T03:40:11.350Z,78.58
2022-08-11T03:40:41.088Z,78.78
2022-08-11T03:41:57.605Z,78.68
2022-08-11T03:42:01.239Z,79.19
2022-08-11T03:42:14.066Z,79.39
2022-08-11T03:42:43.756Z,78.78
2022-08-11T03:43:14.504Z,78.28
2022-08-11T03:43:57.945Z,78.38
2022-08-11T03:44:16.780Z,79.19
2022-08-11T03:44:46.792Z,79.50
2022-08-11T03:45:17.536Z,80.21
2022-08-11T03:45:49.106Z,78.89
2022-08-11T03:46:18.789Z,78.68
2022-08-11T03:46:49.581Z,79.60
2022-08-11T03:47:21.099Z,79.80
2022-08-11T03:47:53.458Z,79.90
2022-08-11T03:48:22.553Z,79.70
2022-08-11T03:48:52.545Z,79.60
2022-08-11T03:49:24.137Z,79.09
2022-08-11T03:49:54.642Z,79.50
2022-08-11T03:50:24.329Z,78.78
2022-08-11T03:50:55.892Z,78.17
2022-08-11T03:51:25.579Z,78.68
2022-08-11T03:51:57.484Z,78.99
2022-08-11T03:52:27.175Z,78.68
2022-08-11T03:52:58.719Z,80.72
2022-08-11T03:53:29.612Z,80.41
2022-08-11T03:53:59.321Z,79.90
2022-08-11T03:54:30.840Z,79.29
2022-08-11T03:55:01.830Z,79.90
2022-08-11T03:55:31.818Z,79.60
2022-08-11T03:56:02.550Z,79.90
2022-08-11T03:56:34.085Z,80.31
2022-08-11T03:57:05.106Z,79.90
2022-08-11T03:57:34.806Z,79.60
2022-08-11T03:58:05.781Z,78.58
2022-08-11T03:58:41.540Z,78.89
2022-08-11T03:59:08.296Z,78.38
2022-08-11T03:59:39.286Z,78.89
2022-08-11T04:00:10.296Z,78.89
2022-08-11T04:00:41.027Z,79.39
2022-08-11T04:01:11.588Z,78.78
2022-08-11T04:01:42.180Z,77.97
2022-08-11T04:02:12.051Z,77.97
2022-08-11T04:02:43.725Z,78.99
2022-08-11T04:03:14.267Z,79.29
2022-08-11T04:03:45.258Z,78.48
2022-08-11T04:04:14.941Z,77.97
2022-08-11T04:04:50.637Z,78.08
2022-08-11T04:05:17.350Z,78.99
2022-08-11T04:05:47.043Z,78.89
2022-08-11T04:06:18.556Z,77.97
2022-08-11T04:06:49.556Z,78.38
2022-08-11T04:07:20.583Z,78.68
2022-08-11T04:07:51.112Z,78.48
2022-08-11T04:08:20.798Z,79.19
2022-08-11T04:08:51.526Z,78.89
2022-08-11T04:09:23.089Z,78.48
2022-08-11T04:09:54.126Z,78.28
2022-08-11T04:10:24.663Z,78.17
2022-08-11T04:10:55.963Z,78.38
2022-08-11T04:11:26.423Z,79.09
2022-08-11T04:11:56.102Z,80.41
2022-08-11T04:12:36.680Z,80.41
2022-08-11T04:12:58.394Z,79.60
2022-08-11T04:13:29.421Z,78.08
2022-08-11T04:13:59.173Z,79.19
2022-08-11T04:14:30.736Z,78.89
2022-08-11T04:15:01.464Z,79.86
2022-08-11T04:15:32.453Z,79.80
2022-08-11T04:16:11.473Z,79.90
2022-08-11T04:16:34.211Z,80.31
2022-08-11T04:17:05.207Z,78.89
2022-08-11T04:17:35.931Z,79.19
2022-08-11T04:18:06.155Z,78.99
2022-08-11T04:18:37.179Z,78.89
2022-08-11T04:19:06.879Z,81.12
2022-08-11T04:19:37.632Z,80.92
2022-08-11T04:20:09.154Z,79.39
2022-08-11T04:20:38.854Z,80.82
2022-08-11T04:21:10.445Z,80.51
2022-08-11T04:21:41.459Z,78.89
2022-08-11T04:22:11.147Z,78.58
2022-08-11T04:22:42.682Z,79.50
2022-08-11T04:23:13.695Z,79.29
2022-08-11T04:24:35.625Z,79.19
2022-08-11T04:24:37.709Z,80.41
2022-08-11T04:24:50.304Z,80.11
2022-08-11T04:25:16.440Z,80.11
2022-08-11T04:25:58.266Z,78.28
2022-08-11T04:26:18.896Z,79.29
2022-08-11T04:26:47.696Z,79.70
2022-08-11T04:27:19.221Z,80.00
2022-08-11T04:27:50.320Z,80.92
2022-08-11T04:28:28.909Z,79.60
2022-08-11T04:28:51.797Z,80.31
2022-08-11T04:29:22.312Z,79.90
2022-08-11T04:30:03.762Z,79.70
2022-08-11T04:30:23.628Z,79.19
2022-08-11T04:30:53.418Z,79.60
2022-08-11T04:31:50.362Z,79.39
2022-08-11T04:31:55.681Z,79.70
2022-08-11T04:32:25.370Z,78.89
2022-08-11T04:32:56.101Z,79.19
2022-08-11T04:33:26.828Z,79.29
2022-08-11T04:33:58.609Z,78.58
2022-08-11T04:34:29.627Z,79.29
2022-08-11T04:35:00.150Z,79.09
2022-08-11T04:35:29.855Z,78.89
2022-08-11T04:36:01.372Z,78.58
2022-08-11T04:36:31.064Z,79.29
2022-08-11T04:37:02.808Z,79.50
2022-08-11T04:37:33.325Z,79.09
2022-08-11T04:38:03.851Z,78.99
2022-08-11T04:38:34.576Z,80.21
2022-08-11T04:39:04.265Z,78.89
2022-08-11T04:39:35.153Z,79.70
2022-08-11T04:40:05.927Z,81.23
2022-08-11T04:40:37.586Z,80.11
2022-08-11T04:41:08.190Z,79.66
2022-08-11T04:41:38.718Z,80.47
2022-08-11T04:42:08.406Z,80.58
2022-08-11T04:42:40.638Z,79.19
2022-08-11T04:43:09.970Z,78.89
2022-08-11T04:44:02.497Z,80.07
2022-08-11T04:44:12.476Z,80.47
2022-08-11T04:44:42.164Z,79.36
2022-08-11T04:45:12.883Z,79.16
2022-08-11T04:45:44.410Z,79.36
2022-08-11T04:46:15.462Z,78.04
2022-08-11T04:46:45.946Z,78.34
2022-08-11T04:47:15.689Z,78.64
2022-08-11T04:48:01.842Z,78.85
2022-08-11T04:48:18.160Z,78.85
2022-08-11T04:49:03.466Z,79.25
2022-08-11T04:49:24.170Z,79.16
2022-08-11T04:49:50.619Z,81.49
2022-08-11T04:50:21.613Z,80.78
2022-08-11T04:51:00.787Z,79.56
2022-08-11T04:51:23.386Z,80.17
2022-08-11T04:51:53.079Z,79.77
2022-08-11T04:52:24.658Z,79.36
2022-08-11T04:52:56.713Z,79.77
2022-08-11T04:53:26.149Z,79.46
2022-08-11T04:53:57.187Z,80.07
2022-08-11T04:54:28.959Z,81.90
2022-08-11T04:54:58.267Z,80.47
2022-08-11T04:55:29.849Z,79.05
2022-08-11T04:56:00.434Z,78.85
2022-08-11T04:56:31.216Z,79.05
2022-08-11T04:57:01.718Z,78.85
2022-08-11T04:57:32.713Z,78.55
2022-08-11T04:58:03.736Z,78.55
2022-08-11T04:58:34.732Z,79.86
2022-08-11T04:59:04.450Z,79.86
2022-08-11T04:59:36.019Z,79.25
2022-08-11T05:00:05.701Z,78.34
2022-08-11T05:00:37.226Z,78.24
2022-08-11T05:01:06.965Z,78.44
2022-08-11T05:01:37.891Z,78.55
2022-08-11T05:02:17.192Z,79.02
2022-08-11T05:02:40.180Z,79.52
2022-08-11T05:03:09.868Z,78.81
2022-08-11T05:03:40.599Z,78.51
2022-08-11T05:04:11.333Z,77.59
2022-08-11T05:04:43.142Z,80.03
2022-08-11T05:05:13.725Z,81.35
2022-08-11T05:05:55.361Z,79.22
2022-08-11T05:06:14.972Z,79.02
2022-08-11T05:06:45.492Z,78.81
2022-08-11T05:07:16.463Z,78.91
2022-08-11T05:07:47.484Z,79.32
2022-08-11T05:08:20.723Z,79.22
2022-08-11T05:08:49.286Z,78.61
2022-08-11T05:09:18.979Z,77.29
2022-08-11T05:09:50.750Z,78.30
2022-08-11T05:10:20.437Z,78.20
2022-08-11T05:10:52.007Z,76.17
2022-08-11T05:11:23.037Z,78.06
2022-08-11T05:12:01.578Z,78.98
2022-08-11T05:12:24.763Z,78.88
2022-08-11T05:12:54.467Z,78.37
2022-08-11T05:13:25.986Z,78.98
2022-08-11T05:13:57.019Z,79.69
2022-08-11T05:14:26.708Z,79.28
2022-08-11T05:14:57.453Z,79.59
2022-08-11T05:15:28.185Z,78.88
2022-08-11T05:15:59.737Z,79.08
2022-08-11T05:16:30.761Z,78.67
2022-08-11T05:17:01.802Z,77.66
2022-08-11T05:17:32.335Z,77.36
2022-08-11T05:18:02.025Z,76.75
2022-08-11T05:18:33.557Z,78.47
2022-08-11T05:19:04.579Z,77.12
2022-08-11T05:19:35.603Z,78.13
2022-08-11T05:20:06.600Z,78.23
2022-08-11T05:20:37.134Z,76.71
2022-08-11T05:21:08.139Z,77.12
2022-08-11T05:21:44.908Z,77.83
2022-08-11T05:22:09.590Z,75.59
2022-08-11T05:22:40.243Z,75.09
2022-08-11T05:23:10.974Z,75.56
2022-08-11T05:23:41.985Z,75.86
2022-08-11T05:24:11.973Z,76.17
2022-08-11T05:24:44.016Z,77.48
2022-08-11T05:25:15.079Z,78.60
2022-08-11T05:26:45.212Z,77.28
2022-08-11T05:26:46.056Z,76.78
2022-08-11T05:26:49.596Z,77.38
2022-08-11T05:27:18.255Z,77.34
2022-08-11T05:27:49.261Z,76.67
2022-08-11T05:28:18.949Z,76.54
2022-08-11T05:28:49.700Z,76.64
2022-08-11T05:29:21.055Z,76.33
2022-08-11T05:29:52.191Z,76.84
2022-08-11T05:30:23.071Z,76.84
2022-08-11T05:30:52.760Z,77.34
2022-08-11T05:31:24.286Z,77.65
2022-08-11T05:31:55.266Z,76.84
2022-08-11T05:32:26.258Z,77.04
2022-08-11T05:33:01.386Z,74.71
2022-08-11T05:33:27.777Z,75.42
2022-08-11T05:33:58.770Z,76.03
2022-08-11T05:34:29.775Z,75.32
2022-08-11T05:35:00.795Z,74.41
2022-08-11T05:36:02.267Z,76.03
2022-08-11T05:36:03.324Z,76.80
2022-08-11T05:36:31.839Z,75.28
2022-08-11T05:37:25.066Z,74.98
2022-08-11T05:37:34.130Z,76.20
2022-08-11T05:38:05.125Z,75.69
2022-08-11T05:38:34.859Z,73.36
2022-08-11T05:39:06.400Z,75.08
2022-08-11T05:39:37.612Z,74.37
2022-08-11T05:40:08.158Z,73.66
2022-08-11T05:40:38.662Z,74.74
2022-08-11T05:41:09.677Z,74.64
2022-08-11T05:41:39.367Z,76.46
2022-08-11T05:42:10.118Z,73.32
2022-08-11T05:42:42.150Z,73.93
2022-08-11T05:43:12.728Z,73.32
2022-08-11T05:44:19.598Z,73.32
2022-08-11T05:44:20.925Z,73.83
2022-08-11T05:44:44.931Z,74.44
2022-08-11T05:45:15.610Z,76.06
2022-08-11T05:46:03.039Z,75.72
2022-08-11T05:46:17.344Z,75.52
2022-08-11T05:46:47.860Z,75.52
2022-08-11T05:47:17.552Z,74.81
2022-08-11T05:47:49.592Z,74.71
2022-08-11T05:48:20.126Z,73.39
2022-08-11T05:48:49.839Z,74.10
2022-08-11T05:49:20.577Z,72.68
2022-08-11T05:49:52.121Z,72.17
2022-08-11T05:50:31.147Z,73.49
2022-08-11T05:50:53.838Z,73.80
2022-08-11T05:51:30.528Z,72.78
2022-08-11T05:52:04.946Z,73.46
2022-08-11T05:52:32.070Z,73.96
2022-08-11T05:52:57.407Z,73.46
2022-08-11T05:53:27.541Z,72.14
2022-08-11T05:53:58.242Z,71.64
2022-08-11T05:54:29.716Z,72.55
2022-08-11T05:54:59.750Z,73.46
2022-08-11T05:55:30.450Z,73.56
2022-08-11T05:56:02.822Z,73.86
2022-08-11T05:56:30.976Z,73.56
2022-08-11T05:57:02.818Z,71.91
2022-08-11T05:57:44.077Z,71.60
2022-08-11T05:58:04.268Z,70.29
2022-08-11T05:58:39.761Z,70.79
2022-08-11T05:59:06.036Z,71.40
2022-08-11T05:59:37.040Z,71.30
2022-08-11T06:00:08.031Z,72.08
2022-08-11T06:00:37.726Z,71.37
2022-08-11T06:01:08.515Z,69.95
2022-08-11T06:01:40.164Z,71.67
2022-08-11T06:02:10.813Z,71.67
2022-08-11T06:02:41.821Z,68.74
2022-08-11T06:03:12.819Z,69.24
2022-08-11T06:03:58.028Z,69.34
2022-08-11T06:04:14.810Z,70.96
2022-08-11T06:04:45.812Z,72.08
2022-08-11T06:05:15.494Z,72.38
2022-08-11T06:05:46.317Z,70.93
2022-08-11T06:06:17.878Z,71.17
2022-08-11T06:06:48.599Z,70.46
2022-08-11T06:07:18.281Z,70.32
2022-08-11T06:07:50.153Z,72.24
2022-08-11T06:08:20.752Z,71.73
2022-08-11T06:08:51.802Z,71.64
2022-08-11T06:09:21.512Z,71.94
2022-08-11T06:09:53.045Z,70.32
2022-08-11T06:10:24.038Z,72.04
2022-08-11T06:10:55.074Z,69.62
2022-08-11T06:11:43.809Z,69.82
2022-08-11T06:11:56.482Z,70.73
2022-08-11T06:12:27.003Z,69.68
2022-08-11T06:12:57.997Z,69.48
2022-08-11T06:13:29.036Z,68.47
2022-08-11T06:13:58.762Z,68.37
2022-08-11T06:14:30.309Z,68.67
2022-08-11T06:14:59.999Z,69.48
2022-08-11T06:15:31.514Z,69.78
2022-08-11T06:16:06.663Z,67.83
2022-08-11T06:16:33.370Z,68.84
2022-08-11T06:17:04.387Z,67.83
2022-08-11T06:17:38.841Z,68.13
2022-08-11T06:18:04.918Z,66.93
2022-08-11T06:18:38.483Z,66.82
2022-08-11T06:19:07.450Z,68.95
2022-08-11T06:19:38.438Z,68.74
2022-08-11T06:20:08.143Z,69.42
2022-08-11T06:20:39.689Z,70.42
2022-08-11T06:21:10.719Z,68.81
2022-08-11T06:21:41.767Z,67.50
2022-08-11T06:22:11.440Z,67.19
2022-08-11T06:22:42.975Z,68.51
2022-08-11T06:23:14.010Z,68.10
2022-08-11T06:23:45.444Z,69.52
2022-08-11T06:24:15.507Z,67.90
2022-08-11T06:24:45.201Z,67.19
2022-08-11T06:25:16.135Z,68.30
2022-08-11T06:25:46.861Z,69.31
2022-08-11T06:26:18.394Z,69.21
2022-08-11T06:27:11.392Z,70.22
2022-08-11T06:27:19.648Z,67.50
2022-08-11T06:27:50.652Z,67.19
2022-08-11T06:28:21.081Z,66.49
2022-08-11T06:28:51.085Z,67.10
2022-08-11T06:29:21.678Z,67.10
2022-08-11T06:29:55.524Z,66.49
2022-08-11T06:30:24.076Z,66.59
2022-08-11T06:30:54.579Z,66.46
2022-08-11T06:31:25.606Z,65.85
2022-08-11T06:31:56.111Z,66.05
2022-08-11T06:32:25.819Z,65.85
2022-08-11T06:32:57.373Z,65.95
2022-08-11T06:33:27.052Z,65.15
2022-08-11T06:33:58.579Z,65.75
2022-08-11T06:34:29.616Z,64.64
2022-08-11T06:34:59.304Z,65.05
2022-08-11T06:35:29.921Z,65.52